Terminal Aerodrome Forecast
Issued by NWS

Home | Current Version | Previous Version | Text Only | Print | Product List | Glossary On
Versions: 1 2 3 4 5 6 7 8 9 10 11 12 13 14 15
000
FTUS43 KDMX 240946 AAA
TAFFOD
TAF AMD
KFOD 240946Z 2410/2506 10012KT P6SM VCSH OVC060
     FM241400 17010KT 5SM -SHRA BR SCT008 OVC015
     FM241800 30010G17KT P6SM SCT015 BKN025
     FM242100 32013KT P6SM SCT030 BKN250
     FM250200 33004KT P6SM SCT250=

USA.gov is the U.S. government's official web portal to all federal, state and local government web resources and services.